TimeMDT,TemperatureF,Dew PointF,Humidity,Sea Level PressureIn,VisibilityMPH,Wind Direction,Wind SpeedMPH,Gust SpeedMPH,PrecipitationIn,Events,Conditions,WindDirDegrees,DateUTC
12:15 AM,33.4,30.9,90,29.81,10.0,WSW,4.6,-,N/A,,Clear,250,2013-03-22 06:15:00
12:35 AM,32.5,30.6,92,29.80,10.0,West,8.1,-,N/A,,Scattered Clouds,280,2013-03-22 06:35:00
12:55 AM,33.8,30.0,86,29.80,10.0,West,6.9,-,N/A,,Mostly Cloudy,270,2013-03-22 06:55:00
1:15 AM,33.1,29.3,86,29.81,10.0,West,6.9,-,N/A,,Scattered Clouds,270,2013-03-22 07:15:00
1:35 AM,34.2,28.8,81,29.81,10.0,WNW,16.1,19.6,N/A,,Clear,290,2013-03-22 07:35:00
1:55 AM,34.7,28.9,79,29.82,10.0,WNW,17.3,23.0,N/A,,Mostly Cloudy,300,2013-03-22 07:55:00
2:15 AM,34.0,28.4,80,29.83,10.0,West,12.7,-,N/A,,Mostly Cloudy,280,2013-03-22 08:15:00
2:35 AM,32.5,28.2,84,29.84,10.0,WNW,10.4,-,N/A,,Scattered Clouds,290,2013-03-22 08:35:00
2:55 AM,33.8,28.9,82,29.84,10.0,WNW,10.4,-,N/A,,Mostly Cloudy,300,2013-03-22 08:55:00
3:15 AM,34.7,28.9,79,29.83,10.0,NW,10.4,13.8,N/A,,Overcast,320,2013-03-22 09:15:00
3:35 AM,33.8,28.4,81,29.82,10.0,NW,17.3,20.7,N/A,,Scattered Clouds,320,2013-03-22 09:35:00
3:55 AM,33.1,28.0,82,29.81,10.0,NW,11.5,-,N/A,,Clear,320,2013-03-22 09:55:00
4:15 AM,32.0,27.7,84,29.80,10.0,NW,9.2,-,N/A,,Clear,320,2013-03-22 10:15:00
4:35 AM,32.4,27.1,81,29.79,10.0,NW,12.7,-,N/A,,Clear,320,2013-03-22 10:35:00
4:55 AM,32.4,27.0,80,29.79,10.0,NNW,13.8,20.7,N/A,,Clear,330,2013-03-22 10:55:00
5:15 AM,32.0,26.6,80,29.79,10.0,NW,8.1,-,N/A,,Clear,320,2013-03-22 11:15:00
5:35 AM,31.1,26.4,83,29.79,10.0,NW,10.4,-,N/A,,Clear,320,2013-03-22 11:35:00
5:55 AM,31.1,26.2,82,29.80,10.0,NW,8.1,-,N/A,,Clear,320,2013-03-22 11:55:00
6:15 AM,31.5,26.1,80,29.79,10.0,NNW,15.0,-,N/A,,Clear,330,2013-03-22 12:15:00
6:35 AM,31.3,25.7,80,29.80,10.0,NW,11.5,-,N/A,,Clear,320,2013-03-22 12:35:00
6:55 AM,29.5,24.8,83,29.82,10.0,WSW,4.6,-,N/A,,Clear,240,2013-03-22 12:55:00
7:15 AM,28.6,25.2,87,29.82,10.0,WSW,8.1,-,N/A,,Clear,250,2013-03-22 13:15:00
7:35 AM,29.5,25.9,86,29.82,10.0,NW,10.4,-,N/A,,Clear,310,2013-03-22 13:35:00
7:55 AM,33.8,26.4,74,29.80,10.0,NNW,18.4,-,N/A,,Clear,340,2013-03-22 13:55:00
8:15 AM,34.0,26.6,74,29.82,10.0,NNW,16.1,-,N/A,,Clear,340,2013-03-22 14:15:00
8:35 AM,33.8,27.1,77,29.83,10.0,NNW,13.8,19.6,N/A,,Clear,330,2013-03-22 14:35:00
8:55 AM,34.5,27.9,77,29.83,10.0,NW,12.7,-,N/A,,Clear,320,2013-03-22 14:55:00
9:15 AM,35.6,28.2,75,29.84,10.0,NNW,12.7,-,N/A,,Clear,330,2013-03-22 15:15:00
9:35 AM,36.5,28.4,72,29.84,10.0,NNW,9.2,-,N/A,,Clear,330,2013-03-22 15:35:00
9:55 AM,37.4,28.9,71,29.85,10.0,NW,9.2,-,N/A,,Clear,320,2013-03-22 15:55:00
10:15 AM,38.7,29.5,70,29.85,10.0,North,4.6,-,N/A,,Clear,350,2013-03-22 16:15:00
10:35 AM,39.9,29.1,65,29.85,10.0,NW,3.5,-,N/A,,Scattered Clouds,310,2013-03-22 16:35:00
10:55 AM,40.6,28.9,63,29.85,10.0,North,6.9,-,N/A,,Mostly Cloudy,360,2013-03-22 16:55:00
11:15 AM,41.0,27.9,60,29.85,10.0,ENE,4.6,-,N/A,,Overcast,60,2013-03-22 17:15:00
11:35 AM,42.4,27.1,55,29.85,10.0,East,6.9,-,N/A,,Mostly Cloudy,90,2013-03-22 17:35:00
11:55 AM,41.4,28.0,59,29.85,10.0,Calm,Calm,-,N/A,,Overcast,0,2013-03-22 17:55:00
12:15 PM,43.3,28.6,56,29.84,10.0,East,5.8,-,N/A,,Overcast,100,2013-03-22 18:15:00
12:35 PM,43.0,26.6,52,29.83,10.0,East,3.5,-,N/A,,Overcast,90,2013-03-22 18:35:00
12:55 PM,45.3,29.3,54,29.83,10.0,East,9.2,-,N/A,,Mostly Cloudy,90,2013-03-22 18:55:00
1:15 PM,43.0,29.1,58,29.83,10.0,ESE,5.8,-,N/A,,Overcast,110,2013-03-22 19:15:00
1:35 PM,43.9,28.2,54,29.81,10.0,East,5.8,-,N/A,,Overcast,80,2013-03-22 19:35:00
2:15 PM,45.7,28.0,50,29.79,10.0,Calm,Calm,-,N/A,,Clear,0,2013-03-22 20:15:00
2:35 PM,46.0,28.2,50,29.78,10.0,ENE,12.7,-,N/A,,Mostly Cloudy,60,2013-03-22 20:35:00
2:55 PM,44.8,27.7,51,29.78,10.0,East,6.9,-,N/A,,Overcast,80,2013-03-22 20:55:00
3:15 PM,45.7,27.3,49,29.78,10.0,ENE,6.9,-,N/A,,Mostly Cloudy,70,2013-03-22 21:15:00
3:35 PM,46.6,25.7,44,29.78,10.0,Calm,Calm,-,N/A,,Scattered Clouds,0,2013-03-22 21:35:00
3:55 PM,47.1,26.6,45,29.78,10.0,East,5.8,-,N/A,,Clear,100,2013-03-22 21:55:00
4:15 PM,45.5,25.5,46,29.78,10.0,SSE,3.5,-,N/A,,Mostly Cloudy,150,2013-03-22 22:15:00
4:35 PM,45.9,24.8,44,29.78,10.0,Calm,Calm,-,N/A,,Overcast,0,2013-03-22 22:35:00
4:55 PM,46.4,25.0,43,29.79,10.0,East,4.6,-,N/A,,Overcast,90,2013-03-22 22:55:00
5:15 PM,45.9,25.7,45,29.79,10.0,East,6.9,-,N/A,,Overcast,80,2013-03-22 23:15:00
5:35 PM,45.7,25.5,45,29.79,10.0,NE,8.1,-,N/A,,Mostly Cloudy,50,2013-03-22 23:35:00
5:55 PM,45.5,25.9,46,29.79,10.0,East,9.2,-,N/A,,Mostly Cloudy,80,2013-03-22 23:55:00
6:15 PM,45.0,26.1,48,29.80,10.0,East,3.5,-,N/A,,Overcast,80,2013-03-23 00:15:00
6:35 PM,41.4,30.9,66,29.81,10.0,NW,13.8,19.6,N/A,Rain,Rain,310,2013-03-23 00:35:00
6:55 PM,39.2,30.9,72,29.81,7.0,SE,8.1,16.1,N/A,Rain,Light Rain,140,2013-03-23 00:55:00
7:15 PM,39.2,31.8,75,29.83,10.0,ESE,3.5,-,N/A,,Overcast,120,2013-03-23 01:15:00
7:35 PM,39.4,31.8,74,29.83,10.0,ESE,3.5,-,N/A,,Overcast,120,2013-03-23 01:35:00
7:55 PM,39.7,31.6,73,29.85,10.0,ESE,4.6,-,N/A,,Overcast,120,2013-03-23 01:55:00
8:15 PM,39.6,31.8,74,29.85,10.0,Calm,Calm,-,N/A,,Overcast,0,2013-03-23 02:15:00
8:35 PM,39.7,31.8,73,29.87,10.0,East,4.6,-,N/A,,Light Drizzle,100,2013-03-23 02:35:00
8:55 PM,36.0,32.0,86,29.88,4.0,East,13.8,20.7,N/A,Snow,Light Snow,80,2013-03-23 02:55:00
9:15 PM,34.9,32.4,91,29.89,5.0,East,10.4,-,0.01,Snow,Light Snow,80,2013-03-23 03:15:00
9:35 PM,34.7,32.4,91,29.90,5.0,East,6.9,-,0.01,Snow,Light Snow,100,2013-03-23 03:35:00
9:55 PM,34.3,32.5,93,29.91,7.0,East,3.5,-,0.01,,Overcast,80,2013-03-23 03:55:00
10:35 PM,34.2,32.4,93,29.91,5.0,SSE,4.6,-,N/A,Snow,Light Snow,150,2013-03-23 04:35:00
10:55 PM,33.8,32.2,94,29.90,7.0,SSE,9.2,-,N/A,,Overcast,160,2013-03-23 04:55:00
11:15 PM,33.8,32.0,93,29.90,10.0,SSE,6.9,-,N/A,,Overcast,160,2013-03-23 05:15:00
11:35 PM,33.8,32.0,93,29.89,10.0,SSE,4.6,-,N/A,,Overcast,150,2013-03-23 05:35:00
11:55 PM,33.8,32.0,93,29.90,10.0,SE,4.6,-,N/A,,Overcast,140,2013-03-23 05:55:00